Hamilton Township, New Jersey
Current Conditions -  °F | °C
As of 10:53 PM on Saturday 22 Nov 2014 (Local Time) from KTTN Reporting Station
Overcast Overcast  
Wind Chill: 36°   Ceiling: 11000
Heat Index: 41°   Visibility: 10mi
Dew Point: 22°   Wind: 8mph
Humidity: 47%   Direction: 210°SSW
Pressure: 30.22"   Gusts: NA
Location:  40.1951°N, 74.7448°W
Report Text: KTTN 230353Z AUTO 21007KT 10SM OVC110 05/M06 A3022 RMK AO2 SLP230 T00501056
Loading
Personal Weather Stations






























Interactive Weather Map New forecast layout! Learn more

10-Day Weather Forecast

Advertisements
Track Severe Weather on mobile